sensor_id;sensor_type;location;lat;lon;timestamp;temperature;humidity
796;DHT22;381;48.770;9.188;2022-08-25T00:04:31;22.80;78.60
796;DHT22;381;48.770;9.188;2022-08-25T00:09:34;22.90;78.80
796;DHT22;381;48.770;9.188;2022-08-25T00:14:37;22.80;79.10
796;DHT22;381;48.770;9.188;2022-08-25T00:19:40;22.70;79.70
796;DHT22;381;48.770;9.188;2022-08-25T00:24:42;22.70;79.40
796;DHT22;381;48.770;9.188;2022-08-25T00:29:44;22.70;79.40
796;DHT22;381;48.770;9.188;2022-08-25T00:34:48;22.60;79.80
796;DHT22;381;48.770;9.188;2022-08-25T00:39:50;22.60;80.10
796;DHT22;381;48.770;9.188;2022-08-25T00:44:52;22.50;80.30
796;DHT22;381;48.770;9.188;2022-08-25T00:49:58;22.50;80.40
796;DHT22;381;48.770;9.188;2022-08-25T00:55:04;22.40;81.10
796;DHT22;381;48.770;9.188;2022-08-25T01:00:16;22.40;80.60
796;DHT22;381;48.770;9.188;2022-08-25T01:05:20;22.40;80.90
796;DHT22;381;48.770;9.188;2022-08-25T01:10:24;22.30;80.70
796;DHT22;381;48.770;9.188;2022-08-25T01:15:27;22.20;81.10
796;DHT22;381;48.770;9.188;2022-08-25T01:20:31;22.20;81.20
796;DHT22;381;48.770;9.188;2022-08-25T01:25:46;22.10;81.80
796;DHT22;381;48.770;9.188;2022-08-25T01:30:51;22.10;81.60
796;DHT22;381;48.770;9.188;2022-08-25T01:35:53;22.00;81.70
796;DHT22;381;48.770;9.188;2022-08-25T01:40:57;21.90;82.20
796;DHT22;381;48.770;9.188;2022-08-25T01:45:59;21.90;82.30
796;DHT22;381;48.770;9.188;2022-08-25T01:51:01;21.90;82.60
796;DHT22;381;48.770;9.188;2022-08-25T01:56:10;21.80;82.60
796;DHT22;381;48.770;9.188;2022-08-25T02:01:15;21.80;83.00
796;DHT22;381;48.770;9.188;2022-08-25T02:06:20;21.70;83.10
796;DHT22;381;48.770;9.188;2022-08-25T02:11:24;21.70;83.30
796;DHT22;381;48.770;9.188;2022-08-25T02:16:28;21.70;83.40
796;DHT22;381;48.770;9.188;2022-08-25T02:21:31;21.70;83.70
796;DHT22;381;48.770;9.188;2022-08-25T02:26:36;21.70;84.70
796;DHT22;381;48.770;9.188;2022-08-25T02:31:38;21.60;84.10
796;DHT22;381;48.770;9.188;2022-08-25T02:36:41;21.60;84.30
796;DHT22;381;48.770;9.188;2022-08-25T02:41:45;21.60;84.60
796;DHT22;381;48.770;9.188;2022-08-25T02:46:50;21.60;83.90
796;DHT22;381;48.770;9.188;2022-08-25T02:51:52;21.50;84.30
796;DHT22;381;48.770;9.188;2022-08-25T02:56:56;21.40;84.70
796;DHT22;381;48.770;9.188;2022-08-25T03:01:58;21.30;85.10
796;DHT22;381;48.770;9.188;2022-08-25T03:07:00;21.30;85.20
796;DHT22;381;48.770;9.188;2022-08-25T03:12:05;21.20;85.70
796;DHT22;381;48.770;9.188;2022-08-25T03:17:08;21.20;85.60
796;DHT22;381;48.770;9.188;2022-08-25T03:22:10;21.20;85.90
796;DHT22;381;48.770;9.188;2022-08-25T03:27:14;21.10;86.20
796;DHT22;381;48.770;9.188;2022-08-25T03:32:16;21.10;85.70
796;DHT22;381;48.770;9.188;2022-08-25T03:37:18;21.10;86.00
796;DHT22;381;48.770;9.188;2022-08-25T03:42:21;21.10;85.80
796;DHT22;381;48.770;9.188;2022-08-25T03:47:26;21.00;85.90
796;DHT22;381;48.770;9.188;2022-08-25T03:52:29;21.00;86.10
796;DHT22;381;48.770;9.188;2022-08-25T03:57:32;21.00;86.00
796;DHT22;381;48.770;9.188;2022-08-25T04:02:34;21.00;86.20
796;DHT22;381;48.770;9.188;2022-08-25T04:07:37;20.90;86.60
796;DHT22;381;48.770;9.188;2022-08-25T04:12:40;21.00;86.70
796;DHT22;381;48.770;9.188;2022-08-25T04:17:42;21.00;86.70
796;DHT22;381;48.770;9.188;2022-08-25T04:22:45;20.90;86.60
796;DHT22;381;48.770;9.188;2022-08-25T04:27:48;20.90;87.10
796;DHT22;381;48.770;9.188;2022-08-25T04:32:51;20.90;87.30
796;DHT22;381;48.770;9.188;2022-08-25T04:37:53;21.00;86.70
796;DHT22;381;48.770;9.188;2022-08-25T04:42:56;20.90;87.10
796;DHT22;381;48.770;9.188;2022-08-25T04:47:58;20.90;87.00
796;DHT22;381;48.770;9.188;2022-08-25T04:53:01;20.80;87.60
796;DHT22;381;48.770;9.188;2022-08-25T04:58:04;20.80;88.20
796;DHT22;381;48.770;9.188;2022-08-25T05:03:07;20.80;88.30
796;DHT22;381;48.770;9.188;2022-08-25T05:08:09;20.80;87.80
796;DHT22;381;48.770;9.188;2022-08-25T05:13:12;20.90;88.70
796;DHT22;381;48.770;9.188;2022-08-25T05:18:15;20.90;88.50
796;DHT22;381;48.770;9.188;2022-08-25T05:23:17;20.90;88.30
796;DHT22;381;48.770;9.188;2022-08-25T05:28:21;21.00;88.30
796;DHT22;381;48.770;9.188;2022-08-25T05:33:23;21.00;87.90
796;DHT22;381;48.770;9.188;2022-08-25T05:38:26;21.00;87.90
796;DHT22;381;48.770;9.188;2022-08-25T05:43:31;21.00;88.60
796;DHT22;381;48.770;9.188;2022-08-25T05:48:33;21.00;88.60
796;DHT22;381;48.770;9.188;2022-08-25T05:53:36;21.00;88.50
796;DHT22;381;48.770;9.188;2022-08-25T05:58:41;21.00;88.60
796;DHT22;381;48.770;9.188;2022-08-25T06:03:43;21.10;88.50
796;DHT22;381;48.770;9.188;2022-08-25T06:08:54;21.20;88.50
796;DHT22;381;48.770;9.188;2022-08-25T06:13:56;21.20;88.70
796;DHT22;381;48.770;9.188;2022-08-25T06:18:58;21.20;88.30
796;DHT22;381;48.770;9.188;2022-08-25T06:24:02;21.30;88.50
796;DHT22;381;48.770;9.188;2022-08-25T06:29:05;21.40;88.30
796;DHT22;381;48.770;9.188;2022-08-25T06:34:07;21.40;88.40
796;DHT22;381;48.770;9.188;2022-08-25T06:39:11;21.50;88.60
796;DHT22;381;48.770;9.188;2022-08-25T06:44:13;21.60;88.40
796;DHT22;381;48.770;9.188;2022-08-25T06:49:18;21.60;88.30
796;DHT22;381;48.770;9.188;2022-08-25T06:54:22;21.70;88.40
796;DHT22;381;48.770;9.188;2022-08-25T06:59:25;21.80;87.90
796;DHT22;381;48.770;9.188;2022-08-25T07:04:30;21.90;88.20
796;DHT22;381;48.770;9.188;2022-08-25T07:09:35;22.00;88.60
796;DHT22;381;48.770;9.188;2022-08-25T07:14:38;22.10;87.70
796;DHT22;381;48.770;9.188;2022-08-25T07:19:40;22.20;88.40
796;DHT22;381;48.770;9.188;2022-08-25T07:24:43;22.20;88.00
796;DHT22;381;48.770;9.188;2022-08-25T07:29:46;22.30;88.00
796;DHT22;381;48.770;9.188;2022-08-25T07:34:49;22.50;87.70
796;DHT22;381;48.770;9.188;2022-08-25T07:40:13;22.60;87.50
796;DHT22;381;48.770;9.188;2022-08-25T07:45:18;22.70;87.70
796;DHT22;381;48.770;9.188;2022-08-25T07:50:22;22.90;87.10
796;DHT22;381;48.770;9.188;2022-08-25T07:55:27;23.10;86.10
796;DHT22;381;48.770;9.188;2022-08-25T08:00:30;23.30;85.50
796;DHT22;381;48.770;9.188;2022-08-25T08:05:34;23.60;84.50
796;DHT22;381;48.770;9.188;2022-08-25T08:10:39;23.80;83.80
796;DHT22;381;48.770;9.188;2022-08-25T08:15:42;24.10;83.90
796;DHT22;381;48.770;9.188;2022-08-25T08:20:45;24.30;82.40
796;DHT22;381;48.770;9.188;2022-08-25T08:25:49;24.40;82.30
796;DHT22;381;48.770;9.188;2022-08-25T08:30:51;24.60;81.40
796;DHT22;381;48.770;9.188;2022-08-25T08:35:58;24.70;81.70
796;DHT22;381;48.770;9.188;2022-08-25T08:41:16;24.80;81.10
796;DHT22;381;48.770;9.188;2022-08-25T08:46:45;24.90;81.00
796;DHT22;381;48.770;9.188;2022-08-25T08:51:55;25.10;79.30
796;DHT22;381;48.770;9.188;2022-08-25T08:57:05;25.20;79.80
796;DHT22;381;48.770;9.188;2022-08-25T09:02:18;25.30;79.40
796;DHT22;381;48.770;9.188;2022-08-25T09:07:26;25.40;77.70
796;DHT22;381;48.770;9.188;2022-08-25T09:12:39;25.40;78.20
796;DHT22;381;48.770;9.188;2022-08-25T09:18:00;25.50;77.70
796;DHT22;381;48.770;9.188;2022-08-25T09:23:15;25.50;76.60
796;DHT22;381;48.770;9.188;2022-08-25T09:28:27;25.60;77.30
796;DHT22;381;48.770;9.188;2022-08-25T09:33:32;25.60;77.40
796;DHT22;381;48.770;9.188;2022-08-25T09:38:34;25.90;76.00
796;DHT22;381;48.770;9.188;2022-08-25T09:43:40;26.20;76.60
796;DHT22;381;48.770;9.188;2022-08-25T09:48:45;26.50;74.60
796;DHT22;381;48.770;9.188;2022-08-25T09:53:52;26.80;73.30
796;DHT22;381;48.770;9.188;2022-08-25T09:59:21;27.20;73.00
796;DHT22;381;48.770;9.188;2022-08-25T10:04:25;27.60;71.10
796;DHT22;381;48.770;9.188;2022-08-25T10:09:33;27.90;70.00
796;DHT22;381;48.770;9.188;2022-08-25T10:14:37;28.20;70.00
796;DHT22;381;48.770;9.188;2022-08-25T10:19:41;28.30;68.30
796;DHT22;381;48.770;9.188;2022-08-25T10:24:43;28.10;69.20
796;DHT22;381;48.770;9.188;2022-08-25T10:30:11;27.90;68.30
796;DHT22;381;48.770;9.188;2022-08-25T10:35:18;27.70;68.20
796;DHT22;381;48.770;9.188;2022-08-25T10:40:27;27.40;69.30
796;DHT22;381;48.770;9.188;2022-08-25T10:45:37;27.30;69.20
796;DHT22;381;48.770;9.188;2022-08-25T10:50:47;27.10;69.80
796;DHT22;381;48.770;9.188;2022-08-25T10:56:09;27.00;70.10
796;DHT22;381;48.770;9.188;2022-08-25T11:01:18;26.90;70.70
796;DHT22;381;48.770;9.188;2022-08-25T11:06:34;26.90;70.10
796;DHT22;381;48.770;9.188;2022-08-25T11:11:43;26.90;70.10
796;DHT22;381;48.770;9.188;2022-08-25T11:16:54;26.90;68.90
796;DHT22;381;48.770;9.188;2022-08-25T11:22:05;26.80;69.90
796;DHT22;381;48.770;9.188;2022-08-25T11:27:11;26.70;69.10
796;DHT22;381;48.770;9.188;2022-08-25T11:32:19;26.80;67.90
796;DHT22;381;48.770;9.188;2022-08-25T11:37:26;26.80;69.40
796;DHT22;381;48.770;9.188;2022-08-25T11:42:39;26.90;67.10
796;DHT22;381;48.770;9.188;2022-08-25T11:47:57;26.90;68.80
796;DHT22;381;48.770;9.188;2022-08-25T11:53:18;26.90;67.80
796;DHT22;381;48.770;9.188;2022-08-25T11:58:36;26.90;67.10
796;DHT22;381;48.770;9.188;2022-08-25T12:04:13;26.90;65.50
796;DHT22;381;48.770;9.188;2022-08-25T12:09:18;26.90;65.70
796;DHT22;381;48.770;9.188;2022-08-25T12:14:44;26.90;64.60
796;DHT22;381;48.770;9.188;2022-08-25T12:19:51;26.90;65.00
796;DHT22;381;48.770;9.188;2022-08-25T12:24:56;26.90;67.00
796;DHT22;381;48.770;9.188;2022-08-25T12:30:10;26.80;66.80
796;DHT22;381;48.770;9.188;2022-08-25T12:35:27;26.80;67.30
796;DHT22;381;48.770;9.188;2022-08-25T12:40:33;26.80;67.70
796;DHT22;381;48.770;9.188;2022-08-25T12:45:42;26.70;68.90
796;DHT22;381;48.770;9.188;2022-08-25T12:50:45;26.70;68.70
796;DHT22;381;48.770;9.188;2022-08-25T12:55:55;26.70;67.90
796;DHT22;381;48.770;9.188;2022-08-25T13:01:12;26.70;66.70
796;DHT22;381;48.770;9.188;2022-08-25T13:06:34;26.70;66.40
796;DHT22;381;48.770;9.188;2022-08-25T13:11:40;26.70;66.40
796;DHT22;381;48.770;9.188;2022-08-25T13:16:57;26.70;66.70
796;DHT22;381;48.770;9.188;2022-08-25T13:22:08;26.70;64.90
796;DHT22;381;48.770;9.188;2022-08-25T13:27:19;26.70;66.00
796;DHT22;381;48.770;9.188;2022-08-25T13:32:27;26.80;66.30
796;DHT22;381;48.770;9.188;2022-08-25T13:37:31;26.80;64.70
796;DHT22;381;48.770;9.188;2022-08-25T13:42:33;26.90;65.20
796;DHT22;381;48.770;9.188;2022-08-25T13:47:37;27.00;65.80
796;DHT22;381;48.770;9.188;2022-08-25T13:52:46;27.00;66.00
796;DHT22;381;48.770;9.188;2022-08-25T13:57:49;27.10;65.70
796;DHT22;381;48.770;9.188;2022-08-25T14:02:53;27.20;65.90
796;DHT22;381;48.770;9.188;2022-08-25T14:07:56;27.20;66.50
796;DHT22;381;48.770;9.188;2022-08-25T14:13:09;27.40;64.90
796;DHT22;381;48.770;9.188;2022-08-25T14:18:16;27.50;65.90
796;DHT22;381;48.770;9.188;2022-08-25T14:23:23;27.50;65.60
796;DHT22;381;48.770;9.188;2022-08-25T14:28:28;27.60;64.70
796;DHT22;381;48.770;9.188;2022-08-25T14:33:34;27.70;63.80
796;DHT22;381;48.770;9.188;2022-08-25T14:38:38;27.80;64.00
796;DHT22;381;48.770;9.188;2022-08-25T14:43:40;27.80;63.40
796;DHT22;381;48.770;9.188;2022-08-25T14:48:44;27.80;63.80
796;DHT22;381;48.770;9.188;2022-08-25T14:53:49;27.60;65.40
796;DHT22;381;48.770;9.188;2022-08-25T14:58:53;27.50;65.70
796;DHT22;381;48.770;9.188;2022-08-25T15:03:57;27.40;67.20
796;DHT22;381;48.770;9.188;2022-08-25T15:09:03;27.30;66.00
796;DHT22;381;48.770;9.188;2022-08-25T15:14:11;27.30;65.70
796;DHT22;381;48.770;9.188;2022-08-25T15:19:16;27.20;66.80
796;DHT22;381;48.770;9.188;2022-08-25T15:24:21;27.20;66.40
796;DHT22;381;48.770;9.188;2022-08-25T15:29:27;27.10;67.50
796;DHT22;381;48.770;9.188;2022-08-25T15:34:30;27.00;68.90
796;DHT22;381;48.770;9.188;2022-08-25T15:39:33;26.90;68.60
796;DHT22;381;48.770;9.188;2022-08-25T15:44:35;26.80;69.70
796;DHT22;381;48.770;9.188;2022-08-25T15:49:37;26.70;69.70
796;DHT22;381;48.770;9.188;2022-08-25T15:54:41;26.60;71.20
796;DHT22;381;48.770;9.188;2022-08-25T15:59:43;26.60;71.60
796;DHT22;381;48.770;9.188;2022-08-25T16:04:45;26.40;70.90
796;DHT22;381;48.770;9.188;2022-08-25T16:09:48;26.40;72.00
796;DHT22;381;48.770;9.188;2022-08-25T16:14:50;26.20;72.90
796;DHT22;381;48.770;9.188;2022-08-25T16:19:53;26.20;70.50
796;DHT22;381;48.770;9.188;2022-08-25T16:24:56;26.30;71.30
796;DHT22;381;48.770;9.188;2022-08-25T16:29:59;26.40;71.30
796;DHT22;381;48.770;9.188;2022-08-25T16:35:01;26.40;71.00
796;DHT22;381;48.770;9.188;2022-08-25T16:40:07;26.40;71.40
796;DHT22;381;48.770;9.188;2022-08-25T16:45:10;26.50;71.10
796;DHT22;381;48.770;9.188;2022-08-25T16:50:12;26.50;71.70
796;DHT22;381;48.770;9.188;2022-08-25T16:55:16;26.50;70.80
796;DHT22;381;48.770;9.188;2022-08-25T17:00:21;26.60;71.00
796;DHT22;381;48.770;9.188;2022-08-25T17:05:25;26.50;70.80
796;DHT22;381;48.770;9.188;2022-08-25T17:10:29;26.50;70.40
796;DHT22;381;48.770;9.188;2022-08-25T17:15:31;26.50;70.30
796;DHT22;381;48.770;9.188;2022-08-25T17:20:33;26.60;69.80
796;DHT22;381;48.770;9.188;2022-08-25T17:25:38;26.60;69.20
796;DHT22;381;48.770;9.188;2022-08-25T17:30:40;26.60;69.80
796;DHT22;381;48.770;9.188;2022-08-25T17:35:45;26.60;69.60
796;DHT22;381;48.770;9.188;2022-08-25T17:40:49;26.50;70.30
796;DHT22;381;48.770;9.188;2022-08-25T17:45:53;26.50;70.20
796;DHT22;381;48.770;9.188;2022-08-25T17:50:57;26.50;70.40
796;DHT22;381;48.770;9.188;2022-08-25T17:56:04;26.40;70.70
796;DHT22;381;48.770;9.188;2022-08-25T18:01:06;26.40;70.90
796;DHT22;381;48.770;9.188;2022-08-25T18:06:15;26.30;71.50
796;DHT22;381;48.770;9.188;2022-08-25T18:11:19;26.20;71.70
796;DHT22;381;48.770;9.188;2022-08-25T18:16:24;26.10;72.20
796;DHT22;381;48.770;9.188;2022-08-25T18:21:27;26.00;72.20
796;DHT22;381;48.770;9.188;2022-08-25T18:26:32;25.90;72.80
796;DHT22;381;48.770;9.188;2022-08-25T18:31:34;25.80;72.70
796;DHT22;381;48.770;9.188;2022-08-25T18:36:36;25.70;72.80
796;DHT22;381;48.770;9.188;2022-08-25T18:41:40;25.60;73.20
796;DHT22;381;48.770;9.188;2022-08-25T18:46:43;25.50;72.90
796;DHT22;381;48.770;9.188;2022-08-25T18:51:46;25.50;73.20
796;DHT22;381;48.770;9.188;2022-08-25T18:56:50;25.40;73.30
796;DHT22;381;48.770;9.188;2022-08-25T19:01:53;25.30;73.80
796;DHT22;381;48.770;9.188;2022-08-25T19:06:56;25.20;74.50
796;DHT22;381;48.770;9.188;2022-08-25T19:12:00;25.10;74.50
796;DHT22;381;48.770;9.188;2022-08-25T19:17:03;25.10;75.10
796;DHT22;381;48.770;9.188;2022-08-25T19:22:05;25.00;75.70
796;DHT22;381;48.770;9.188;2022-08-25T19:27:08;24.90;75.70
796;DHT22;381;48.770;9.188;2022-08-25T19:32:11;24.90;76.70
796;DHT22;381;48.770;9.188;2022-08-25T19:37:15;24.80;78.70
796;DHT22;381;48.770;9.188;2022-08-25T19:42:19;24.80;78.20
796;DHT22;381;48.770;9.188;2022-08-25T19:47:21;24.70;79.70
796;DHT22;381;48.770;9.188;2022-08-25T19:52:24;24.70;77.60
796;DHT22;381;48.770;9.188;2022-08-25T19:57:27;24.60;76.40
796;DHT22;381;48.770;9.188;2022-08-25T20:02:30;24.60;77.50
796;DHT22;381;48.770;9.188;2022-08-25T20:07:32;24.60;78.20
796;DHT22;381;48.770;9.188;2022-08-25T20:12:36;24.50;78.50
796;DHT22;381;48.770;9.188;2022-08-25T20:17:38;24.50;77.80
796;DHT22;381;48.770;9.188;2022-08-25T20:22:40;24.40;78.80
796;DHT22;381;48.770;9.188;2022-08-25T20:27:45;24.40;78.00
796;DHT22;381;48.770;9.188;2022-08-25T20:32:48;24.40;77.20
796;DHT22;381;48.770;9.188;2022-08-25T20:37:51;24.30;77.10
796;DHT22;381;48.770;9.188;2022-08-25T20:42:55;24.30;76.80
796;DHT22;381;48.770;9.188;2022-08-25T20:47:59;24.30;76.30
796;DHT22;381;48.770;9.188;2022-08-25T20:53:01;24.20;76.60
796;DHT22;381;48.770;9.188;2022-08-25T20:58:06;24.20;76.80
796;DHT22;381;48.770;9.188;2022-08-25T21:03:09;24.10;77.20
796;DHT22;381;48.770;9.188;2022-08-25T21:08:11;24.00;77.30
796;DHT22;381;48.770;9.188;2022-08-25T21:13:14;24.00;78.00
796;DHT22;381;48.770;9.188;2022-08-25T21:18:17;24.00;78.10
796;DHT22;381;48.770;9.188;2022-08-25T21:23:19;23.90;78.10
796;DHT22;381;48.770;9.188;2022-08-25T21:28:22;23.90;78.20
796;DHT22;381;48.770;9.188;2022-08-25T21:33:24;23.90;79.30
796;DHT22;381;48.770;9.188;2022-08-25T21:38:26;23.90;81.40
796;DHT22;381;48.770;9.188;2022-08-25T21:43:30;23.90;81.20
796;DHT22;381;48.770;9.188;2022-08-25T21:48:32;23.90;79.40
796;DHT22;381;48.770;9.188;2022-08-25T21:53:34;23.80;79.30
796;DHT22;381;48.770;9.188;2022-08-25T21:58:37;23.80;79.30
796;DHT22;381;48.770;9.188;2022-08-25T22:03:40;23.80;79.20
796;DHT22;381;48.770;9.188;2022-08-25T22:08:43;23.80;79.30
796;DHT22;381;48.770;9.188;2022-08-25T22:13:47;23.70;79.70
796;DHT22;381;48.770;9.188;2022-08-25T22:18:49;23.70;79.20
796;DHT22;381;48.770;9.188;2022-08-25T22:23:52;23.70;79.40
796;DHT22;381;48.770;9.188;2022-08-25T22:28:57;23.60;79.70
796;DHT22;381;48.770;9.188;2022-08-25T22:34:00;23.50;79.80
796;DHT22;381;48.770;9.188;2022-08-25T22:39:05;23.50;79.60
796;DHT22;381;48.770;9.188;2022-08-25T22:44:09;23.40;79.30
796;DHT22;381;48.770;9.188;2022-08-25T22:49:11;23.30;79.90
796;DHT22;381;48.770;9.188;2022-08-25T22:54:13;23.20;80.20
796;DHT22;381;48.770;9.188;2022-08-25T22:59:17;23.20;80.10
796;DHT22;381;48.770;9.188;2022-08-25T23:04:19;23.20;79.80
796;DHT22;381;48.770;9.188;2022-08-25T23:09:21;23.20;80.20
796;DHT22;381;48.770;9.188;2022-08-25T23:14:25;23.10;79.70
796;DHT22;381;48.770;9.188;2022-08-25T23:19:27;23.10;80.00
796;DHT22;381;48.770;9.188;2022-08-25T23:24:30;23.00;80.50
796;DHT22;381;48.770;9.188;2022-08-25T23:29:36;23.00;80.50
796;DHT22;381;48.770;9.188;2022-08-25T23:34:39;23.00;80.50
796;DHT22;381;48.770;9.188;2022-08-25T23:39:42;22.90;80.10
796;DHT22;381;48.770;9.188;2022-08-25T23:44:47;22.90;80.50
796;DHT22;381;48.770;9.188;2022-08-25T23:49:49;22.80;80.70
796;DHT22;381;48.770;9.188;2022-08-25T23:54:51;22.80;80.30
796;DHT22;381;48.770;9.188;2022-08-25T23:59:55;22.80;81.30
